MDT,Max TemperatureF,Mean TemperatureF,Min TemperatureF,Max Dew PointF,MeanDew PointF,Min DewpointF,Max Humidity, Mean Humidity, Min Humidity, Max Sea Level PressureIn, Mean Sea Level PressureIn, Min Sea Level PressureIn, Max VisibilityMiles, Mean VisibilityMiles, Min VisibilityMiles, Max Wind SpeedMPH, Mean Wind SpeedMPH, Max Gust SpeedMPH,PrecipitationIn, CloudCover, Events, WindDirDegrees
2012-9-1,94,78,62,60,50,44,78,49,20,29.83,29.73,29.69,10,10,10,25,10,32,T,0,,248
2012-9-2,87,73,58,52,38,23,77,44,11,29.93,29.87,29.83,10,10,10,30,8,44,0.01,1,Rain,267
2012-9-3,84,68,52,38,26,21,42,26,10,29.96,29.90,29.83,10,10,10,22,8,26,0.00,0,,302
2012-9-4,83,65,46,41,31,25,56,36,15,30.10,29.96,29.87,10,10,9,38,9,45,0.00,1,,328
2012-9-5,82,62,42,39,33,29,82,49,15,30.11,29.97,29.84,10,10,10,16,5,18,0.00,0,,153
2012-9-6,72,64,55,41,39,30,51,40,29,30.16,30.02,29.87,10,10,10,21,11,26,0.00,3,,354
2012-9-7,78,62,46,40,37,35,71,46,21,30.27,30.21,30.18,10,10,9,15,5,24,0.00,1,,332
2012-9-8,80,63,45,45,39,34,65,48,30,30.25,30.18,30.10,10,10,10,13,5,15,0.00,0,,67
2012-9-9,93,74,55,35,31,25,43,26,8,30.09,29.86,29.63,10,10,10,16,7,21,0.00,0,,142
2012-9-10,93,74,54,45,33,27,39,26,12,29.75,29.64,29.55,10,9,7,38,8,45,0.01,0,Rain-Thunderstorm,323
2012-9-11,75,60,45,31,24,13,46,31,15,30.13,29.95,29.77,10,10,10,23,10,28,0.00,0,,326
2012-9-12,70,53,35,24,17,13,64,38,11,30.32,30.26,30.15,10,10,10,17,6,22,0.00,0,,268
2012-9-13,79,58,37,33,24,16,44,29,13,30.37,30.33,30.30,10,10,10,22,8,28,0.00,0,,170
2012-9-14,89,69,48,33,27,19,54,31,8,30.34,30.15,29.95,10,10,10,21,9,25,0.00,0,,153
2012-9-15,89,69,48,29,24,21,43,31,26,30.00,29.97,29.94,10,10,10,15,7,18,0.00,1,,191
2012-9-16,68,58,47,,,,,,,,,,,,,30,13,39,T,,,
2012-9-17,69,55,41,,,,,,,,,,,,,12,5,18,0.00,,,
2012-9-18,87,65,43,31,29,27,29,21,12,29.94,29.83,29.77,10,10,10,23,10,30,0.00,0,,303
2012-9-19,73,61,48,34,30,27,48,34,19,30.17,30.06,29.86,10,10,10,21,9,28,0.00,0,,333
2012-9-20,77,60,42,32,30,27,53,36,19,30.08,30.03,29.98,10,10,6,26,10,31,0.00,0,,318
2012-9-21,76,60,44,35,31,30,58,39,19,30.14,30.09,30.03,10,10,9,20,9,24,0.00,0,,321
2012-9-22,76,59,42,34,32,28,62,42,21,30.24,30.17,30.11,10,10,10,15,9,20,0.00,0,,52
2012-9-23,80,61,41,32,29,27,60,38,16,30.15,30.09,30.04,10,10,10,13,7,16,0.00,0,,111
2012-9-24,83,63,42,31,28,25,49,32,14,30.03,29.94,29.86,10,10,3,9,2,12,0.00,0,,85
2012-9-25,83,63,42,32,28,25,49,32,14,29.93,29.89,29.85,10,10,10,10,3,10,0.00,0,,34
2012-9-26,81,64,47,39,34,29,50,33,16,30.04,29.99,29.91,10,10,10,23,7,28,0.00,1,,8
2012-9-27,77,65,53,49,44,39,71,51,31,30.10,30.06,30.01,10,10,10,17,5,23,T,3,,217
2012-9-28,82,66,49,48,43,37,83,52,21,30.06,29.97,29.86,10,10,10,18,9,25,0.00,0,,133
2012-9-29,85,69,52,43,38,33,59,38,16,29.96,29.90,29.83,10,10,8,15,8,20,0.00,0,,251
2012-9-30,80,64,48,43,37,33,68,45,21,30.26,30.06,29.96,10,10,9,24,10,30,0.00,1,,312